Time;durP1;ratioP1;P1;durP2;ratioP2;P2;SDS_P1;SDS_P2;PMS_P1;PMS_P2;Temp;Humidity;BMP_temperature;BMP_pressure;BME280_temperature;BME280_humidity;BME280_pressure;Samples;Min_cycle;Max_cycle;Signal;HPM_P1;HPM_P2
2022/01/14 00:01:57;;;;;;;1.77;0.82;;;3.30;99.90;;;;;;5060285;28;20041;-65
2022/01/14 00:04:23;;;;;;;3.83;1.40;;;3.30;99.90;;;;;;5058886;28;20051;-64
2022/01/14 00:06:49;;;;;;;5.93;1.35;;;3.30;99.90;;;;;;5075014;28;20082;-65
2022/01/14 00:09:16;;;;;;;6.22;1.60;;;3.20;99.90;;;;;;5076959;28;20501;-65
2022/01/14 00:11:50;;;;;;;4.05;1.45;;;3.30;99.90;;;;;;5080269;28;20227;-65
2022/01/14 00:16:43;;;;;;;5.82;1.15;;;3.20;99.90;;;;;;5080623;28;20047;-64
2022/01/14 00:19:09;;;;;;;2.20;1.05;;;3.20;99.90;;;;;;5063420;28;20033;-64
2022/01/14 00:21:38;;;;;;;5.03;1.23;;;3.20;99.90;;;;;;5065610;28;20044;-64
2022/01/14 00:24:31;;;;;;;5.15;1.10;;;3.20;99.90;;;;;;5061024;28;20451;-64
2022/01/14 00:32:43;;;;;;;2.25;0.60;;;3.20;99.90;;;;;;5064537;28;20036;-65
2022/01/14 00:35:08;;;;;;;1.50;0.73;;;3.20;99.90;;;;;;5055364;28;20044;-64
2022/01/14 00:37:34;;;;;;;1.17;0.60;;;3.20;99.90;;;;;;5064649;28;20467;-65
2022/01/14 00:40:00;;;;;;;3.60;0.77;;;3.10;99.90;;;;;;5062397;28;20044;-64
2022/01/14 00:42:25;;;;;;;5.25;0.88;;;3.10;99.90;;;;;;5065246;28;20040;-64
2022/01/14 00:44:52;;;;;;;5.80;0.80;;;3.20;99.90;;;;;;5061142;28;20097;-64
2022/01/14 00:47:18;;;;;;;4.43;1.00;;;3.20;99.90;;;;;;5063831;28;20040;-65
2022/01/14 00:49:43;;;;;;;1.02;0.63;;;3.20;99.90;;;;;;5062470;28;20136;-65
2022/01/14 00:52:09;;;;;;;2.25;0.95;;;3.20;99.90;;;;;;5067132;28;20033;-64
2022/01/14 00:54:34;;;;;;;2.33;0.98;;;3.30;99.90;;;;;;5063528;28;20040;-65
2022/01/14 00:59:35;;;;;;;7.93;1.15;;;3.40;99.90;;;;;;5063407;28;20194;-64
2022/01/14 01:02:01;;;;;;;7.55;0.90;;;3.40;99.90;;;;;;5067419;28;20551;-67
2022/01/14 01:04:35;;;;;;;2.22;0.95;;;3.40;99.90;;;;;;5064073;28;20630;-64
2022/01/14 01:07:03;;;;;;;1.85;0.70;;;3.30;99.90;;;;;;5064875;28;20442;-64
2022/01/14 01:09:30;;;;;;;3.70;0.75;;;3.30;99.90;;;;;;5063374;28;20044;-64
2022/01/14 01:12:10;;;;;;;5.30;1.30;;;3.30;99.90;;;;;;5068173;28;20033;-64
2022/01/14 01:14:46;;;;;;;3.13;0.98;;;3.40;99.90;;;;;;5064617;28;20033;-64
2022/01/14 01:17:12;;;;;;;3.47;1.00;;;3.40;99.90;;;;;;5061179;28;20041;-64
2022/01/14 01:19:37;;;;;;;7.28;0.93;;;3.40;99.90;;;;;;5063117;28;20051;-64
2022/01/14 01:22:03;;;;;;;5.90;1.08;;;3.40;99.90;;;;;;5067699;28;20044;-65
2022/01/14 01:24:29;;;;;;;3.97;0.88;;;3.40;99.90;;;;;;5078747;28;20051;-65
2022/01/14 01:26:55;;;;;;;3.95;0.82;;;3.40;99.90;;;;;;5067159;28;20041;-65
2022/01/14 01:31:54;;;;;;;3.25;0.93;;;3.30;99.90;;;;;;5062111;28;20040;-64
2022/01/14 01:34:23;;;;;;;3.05;0.93;;;3.30;99.90;;;;;;5061347;28;20033;-64
2022/01/14 01:36:52;;;;;;;2.90;0.93;;;3.30;99.90;;;;;;5064734;28;20127;-65
2022/01/14 01:39:23;;;;;;;1.88;1.17;;;3.30;99.90;;;;;;5059991;28;20123;-64
2022/01/14 01:41:52;;;;;;;2.35;0.82;;;3.30;99.90;;;;;;5066926;28;20045;-64
2022/01/14 01:44:19;;;;;;;2.90;0.90;;;3.20;99.90;;;;;;5064470;28;20040;-64
2022/01/14 01:46:47;;;;;;;6.55;1.00;;;3.30;99.90;;;;;;5066399;28;20044;-65
2022/01/14 01:49:15;;;;;;;5.85;1.35;;;3.30;99.90;;;;;;5063591;28;20970;-64
2022/01/14 01:51:44;;;;;;;4.18;0.98;;;3.30;99.90;;;;;;5062693;28;20048;-65
2022/01/14 01:54:09;;;;;;;2.40;0.85;;;3.20;99.90;;;;;;5060610;28;20519;-65
2022/01/14 01:56:35;;;;;;;5.93;0.77;;;3.30;99.90;;;;;;5065677;28;20048;-65
2022/01/14 01:59:02;;;;;;;3.28;1.08;;;3.30;99.90;;;;;;5061012;28;20519;-64
2022/01/14 02:01:27;;;;;;;4.63;0.90;;;3.20;99.90;;;;;;5063008;28;20778;-65
2022/01/14 02:03:54;;;;;;;2.45;0.80;;;3.20;99.90;;;;;;5059093;28;20044;-65
2022/01/14 02:06:20;;;;;;;4.47;1.33;;;3.30;99.90;;;;;;5057818;28;20079;-64
2022/01/14 02:08:46;;;;;;;3.03;1.50;;;3.30;99.90;;;;;;5062605;28;20036;-65
2022/01/14 02:11:12;;;;;;;3.17;1.20;;;3.30;99.90;;;;;;5066167;28;20036;-65
2022/01/14 02:13:38;;;;;;;3.67;1.20;;;3.30;99.90;;;;;;5063276;28;20842;-65
2022/01/14 02:18:36;;;;;;;4.00;1.10;;;3.30;99.90;;;;;;5063446;28;20044;-66
2022/01/14 02:23:55;;;;;;;;;;;3.10;99.90;;;;;;5056370;28;20516;-65
2022/01/14 02:26:22;;;;;;;4.30;1.60;;;3.20;99.90;;;;;;5065928;28;19928;-65
2022/01/14 02:28:51;;;;;;;8.05;1.45;;;3.10;99.90;;;;;;5066781;28;20378;-65
2022/01/14 02:31:18;;;;;;;6.47;1.70;;;3.10;99.90;;;;;;5070609;28;20436;-64
2022/01/14 02:33:44;;;;;;;4.57;1.83;;;3.30;99.90;;;;;;5076065;28;20036;-64
2022/01/14 02:36:10;;;;;;;2.85;1.23;;;3.30;99.90;;;;;;5066722;28;20523;-64
2022/01/14 02:38:37;;;;;;;4.43;1.40;;;3.30;99.90;;;;;;5059683;28;20095;-64
2022/01/14 02:41:02;;;;;;;4.80;1.55;;;3.30;99.90;;;;;;5062379;28;20056;-64
2022/01/14 02:43:28;;;;;;;3.38;1.30;;;3.20;99.90;;;;;;5059788;28;20510;-63
2022/01/14 02:45:56;;;;;;;2.90;1.60;;;3.30;99.90;;;;;;5061671;28;20879;-63
2022/01/14 02:48:27;;;;;;;2.55;1.20;;;3.20;99.90;;;;;;5063034;28;20371;-63
2022/01/14 02:53:27;;;;;;;8.80;1.85;;;3.30;99.90;;;;;;5058117;28;20817;-63
2022/01/14 02:55:55;;;;;;;6.70;1.55;;;3.30;99.90;;;;;;5061916;28;20089;-63
2022/01/14 02:58:21;;;;;;;7.75;1.30;;;3.30;99.90;;;;;;5059725;28;20097;-63
2022/01/14 03:00:50;;;;;;;5.68;1.38;;;3.20;99.90;;;;;;5058211;28;20071;-64
2022/01/14 03:03:22;;;;;;;3.92;1.15;;;3.30;99.90;;;;;;5060278;28;20104;-63
2022/01/14 03:05:48;;;;;;;2.88;1.42;;;3.30;99.90;;;;;;5055734;28;20041;-63
2022/01/14 03:08:14;;;;;;;5.15;1.27;;;3.30;99.90;;;;;;5060388;28;20028;-63
2022/01/14 03:10:40;;;;;;;2.90;1.40;;;3.30;99.90;;;;;;5059420;28;20040;-62
2022/01/14 03:13:06;;;;;;;1.80;1.05;;;3.30;99.90;;;;;;5061469;28;20036;-64
2022/01/14 03:15:32;;;;;;;2.13;1.17;;;3.30;99.90;;;;;;5059046;28;20037;-64
2022/01/14 03:17:58;;;;;;;3.63;1.63;;;3.30;99.90;;;;;;5060790;28;20582;-64
2022/01/14 03:20:45;;;;;;;3.58;1.52;;;3.30;99.90;;;;;;5051424;28;20037;-64
2022/01/14 03:23:13;;;;;;;4.45;1.60;;;3.20;99.90;;;;;;5056023;28;20071;-64
2022/01/14 03:25:48;;;;;;;3.55;1.58;;;3.20;99.90;;;;;;5060088;28;20048;-63
2022/01/14 03:28:22;;;;;;;5.70;1.50;;;3.20;99.90;;;;;;5057555;28;20033;-63
2022/01/14 03:30:49;;;;;;;2.97;1.05;;;3.20;99.90;;;;;;5060316;28;20091;-64
2022/01/14 03:33:15;;;;;;;2.72;1.10;;;3.10;99.90;;;;;;5063799;28;20035;-63
2022/01/14 03:35:41;;;;;;;2.47;1.20;;;3.10;99.90;;;;;;5064047;28;20040;-63
2022/01/14 03:38:06;;;;;;;3.35;1.60;;;3.10;99.90;;;;;;5064735;28;20082;-63
2022/01/14 03:40:32;;;;;;;4.30;1.13;;;3.10;99.90;;;;;;5062833;28;20041;-64
2022/01/14 03:42:58;;;;;;;5.93;1.60;;;3.00;99.90;;;;;;5062835;28;20063;-64
2022/01/14 03:45:24;;;;;;;2.28;1.15;;;3.00;99.90;;;;;;5062281;28;20032;-63
2022/01/14 03:47:49;;;;;;;3.22;1.27;;;3.10;99.90;;;;;;5064246;28;20577;-63
2022/01/14 03:50:15;;;;;;;5.70;1.35;;;3.10;99.90;;;;;;5062074;28;20043;-64
2022/01/14 03:52:40;;;;;;;2.03;0.95;;;3.10;99.90;;;;;;5061592;28;20083;-63
2022/01/14 03:55:06;;;;;;;6.20;1.63;;;3.10;99.90;;;;;;5061219;28;20044;-63
2022/01/14 03:57:32;;;;;;;2.80;0.98;;;3.10;99.90;;;;;;5068110;28;20071;-63
2022/01/14 03:59:57;;;;;;;3.67;1.00;;;3.00;99.90;;;;;;5060095;28;20082;-64
2022/01/14 04:02:23;;;;;;;2.72;1.10;;;3.10;99.90;;;;;;5064812;28;20715;-64
2022/01/14 04:04:49;;;;;;;8.90;1.77;;;3.10;99.90;;;;;;5060802;28;20133;-63
2022/01/14 04:07:14;;;;;;;2.75;1.13;;;3.00;99.90;;;;;;5065447;28;20115;-63
2022/01/14 04:09:40;;;;;;;10.27;1.77;;;3.10;99.90;;;;;;5061353;28;20120;-63
2022/01/14 04:12:08;;;;;;;3.05;1.35;;;3.10;99.90;;;;;;5064996;28;20037;-64
2022/01/14 04:17:02;;;;;;;4.43;1.38;;;3.10;99.90;;;;;;5068181;28;20100;-64
2022/01/14 04:19:29;;;;;;;3.13;1.60;;;3.00;99.90;;;;;;5065199;28;20056;-63
2022/01/14 04:21:55;;;;;;;2.22;1.23;;;3.00;99.90;;;;;;5065501;28;20033;-63
2022/01/14 04:24:21;;;;;;;4.13;1.40;;;3.00;99.90;;;;;;5061395;28;20077;-62
2022/01/14 04:26:47;;;;;;;2.55;1.25;;;3.00;99.90;;;;;;5069023;28;20044;-63
2022/01/14 04:29:12;;;;;;;3.20;1.30;;;3.00;99.90;;;;;;5062509;28;20041;-63
2022/01/14 04:31:38;;;;;;;3.22;1.20;;;3.00;99.90;;;;;;5064684;28;20076;-64
2022/01/14 04:34:03;;;;;;;3.92;1.58;;;3.00;99.90;;;;;;5061853;28;20028;-63
2022/01/14 04:36:29;;;;;;;3.75;1.38;;;3.00;99.90;;;;;;5065037;28;20044;-64
2022/01/14 04:38:55;;;;;;;3.40;1.35;;;3.00;99.90;;;;;;5065710;28;20036;-63
2022/01/14 04:41:20;;;;;;;4.60;1.30;;;3.00;99.90;;;;;;5064814;28;20634;-63
2022/01/14 04:43:46;;;;;;;1.92;1.10;;;3.00;99.90;;;;;;5061101;28;20047;-63
2022/01/14 04:48:38;;;;;;;2.28;1.17;;;3.00;99.90;;;;;;5065725;28;20044;-63
2022/01/14 04:51:07;;;;;;;3.20;1.02;;;3.00;99.90;;;;;;5066680;28;20032;-63
2022/01/14 04:53:34;;;;;;;4.05;1.20;;;3.00;99.90;;;;;;5061962;28;20037;-63
2022/01/14 04:56:00;;;;;;;1.85;0.80;;;3.00;99.90;;;;;;5060621;28;20041;-63
2022/01/14 04:58:27;;;;;;;2.55;0.98;;;2.90;99.90;;;;;;5062884;28;20040;-62
2022/01/14 05:00:54;;;;;;;4.47;1.33;;;2.90;99.90;;;;;;5058050;28;20079;-63
2022/01/14 05:03:20;;;;;;;3.65;1.20;;;2.90;99.90;;;;;;5063860;28;20037;-63
2022/01/14 05:05:48;;;;;;;3.33;1.23;;;2.90;99.90;;;;;;5065275;28;20527;-63
2022/01/14 05:08:25;;;;;;;3.22;1.42;;;2.90;99.90;;;;;;5065562;28;20052;-63
2022/01/14 05:13:20;;;;;;;2.83;1.70;;;2.90;99.90;;;;;;5064911;28;20127;-63
2022/01/14 05:15:46;;;;;;;2.08;1.05;;;2.90;99.90;;;;;;5060773;28;20045;-63
2022/01/14 05:18:11;;;;;;;2.92;1.02;;;3.00;99.90;;;;;;5065518;28;20408;-64
2022/01/14 05:20:37;;;;;;;3.92;1.20;;;3.00;99.90;;;;;;5055646;28;20089;-62
2022/01/14 05:23:03;;;;;;;2.95;1.30;;;3.00;99.90;;;;;;5063176;28;20575;-63
2022/01/14 05:25:28;;;;;;;3.25;1.27;;;3.00;99.90;;;;;;5061138;28;20047;-62
2022/01/14 05:27:54;;;;;;;8.90;1.90;;;3.00;99.90;;;;;;5061724;28;20039;-62
2022/01/14 05:30:20;;;;;;;2.63;1.42;;;3.00;99.90;;;;;;5057567;28;20504;-62
2022/01/14 05:32:48;;;;;;;3.72;1.65;;;2.90;99.90;;;;;;5063529;28;20420;-63
2022/01/14 05:35:16;;;;;;;2.28;1.05;;;2.90;99.90;;;;;;5061554;28;20036;-63
2022/01/14 05:37:42;;;;;;;4.00;1.05;;;3.00;99.90;;;;;;5064020;28;20056;-64
2022/01/14 05:40:09;;;;;;;1.90;1.00;;;3.00;99.90;;;;;;5059793;28;20048;-64
2022/01/14 05:42:36;;;;;;;5.10;1.88;;;3.00;99.90;;;;;;5062677;28;20850;-64
2022/01/14 05:45:06;;;;;;;2.72;1.10;;;3.10;99.90;;;;;;5060578;28;20241;-63
2022/01/14 05:47:32;;;;;;;3.17;1.52;;;3.20;99.90;;;;;;5066177;28;20036;-64
2022/01/14 05:49:58;;;;;;;2.15;1.17;;;3.10;99.90;;;;;;5062698;28;20051;-63
2022/01/14 05:52:23;;;;;;;2.75;1.90;;;3.10;99.90;;;;;;5066601;28;20055;-63
2022/01/14 05:54:52;;;;;;;2.75;1.25;;;3.00;99.90;;;;;;5059794;28;20145;-64
2022/01/14 05:57:18;;;;;;;3.13;1.38;;;3.00;99.90;;;;;;5066221;28;20625;-65
2022/01/14 05:59:43;;;;;;;5.93;1.50;;;3.00;99.90;;;;;;5060252;28;20074;-64
2022/01/14 06:02:09;;;;;;;4.13;1.75;;;3.00;99.90;;;;;;5058579;28;20033;-64
2022/01/14 06:04:34;;;;;;;4.22;1.48;;;2.90;99.90;;;;;;5057581;28;20425;-63
2022/01/14 06:07:03;;;;;;;3.47;1.27;;;3.00;99.90;;;;;;5061769;28;20039;-64
2022/01/14 06:09:28;;;;;;;4.00;1.40;;;2.90;99.90;;;;;;5063054;28;20053;-64
2022/01/14 06:11:54;;;;;;;4.15;1.30;;;3.00;99.90;;;;;;5064773;28;20058;-64
2022/01/14 06:14:19;;;;;;;3.85;1.33;;;3.00;99.90;;;;;;5062834;28;20039;-63
2022/01/14 06:16:46;;;;;;;5.53;1.58;;;2.90;99.90;;;;;;5065380;28;20043;-63
2022/01/14 06:19:11;;;;;;;2.90;1.42;;;2.90;99.90;;;;;;5062263;28;20036;-64
2022/01/14 06:21:37;;;;;;;3.67;1.67;;;2.80;99.90;;;;;;5063249;28;20076;-65
2022/01/14 06:24:02;;;;;;;5.18;1.50;;;2.80;99.90;;;;;;5059282;28;20484;-64
2022/01/14 06:26:28;;;;;;;3.47;1.48;;;2.80;99.90;;;;;;5062450;28;20098;-63
2022/01/14 06:28:54;;;;;;;3.90;1.80;;;2.80;99.90;;;;;;5055791;28;20034;-65
2022/01/14 06:31:20;;;;;;;4.47;1.40;;;2.80;99.90;;;;;;5062330;28;20105;-65
2022/01/14 06:33:46;;;;;;;7.40;1.33;;;2.80;99.90;;;;;;5058031;28;20087;-65
2022/01/14 06:36:12;;;;;;;3.97;1.70;;;2.80;99.90;;;;;;5053043;28;20506;-65
2022/01/14 06:38:38;;;;;;;2.78;1.25;;;2.80;99.90;;;;;;5058891;28;20055;-65
2022/01/14 06:41:03;;;;;;;2.33;1.35;;;2.70;99.90;;;;;;5062435;28;20040;-65
2022/01/14 06:43:29;;;;;;;9.15;2.90;;;2.70;99.90;;;;;;5062013;28;20425;-65
2022/01/14 06:45:55;;;;;;;3.55;1.48;;;2.70;99.90;;;;;;5065040;28;20462;-65
2022/01/14 06:48:20;;;;;;;7.40;1.77;;;2.80;99.90;;;;;;5062592;28;20039;-65
2022/01/14 06:50:46;;;;;;;10.25;2.00;;;2.70;99.90;;;;;;5061536;28;20480;-64
2022/01/14 06:53:12;;;;;;;6.85;2.08;;;2.70;99.90;;;;;;5063635;28;20043;-65
2022/01/14 06:55:37;;;;;;;3.15;1.27;;;2.70;99.90;;;;;;5061377;28;20075;-64
2022/01/14 06:58:03;;;;;;;3.58;1.75;;;2.80;99.90;;;;;;5064657;28;20536;-64
2022/01/14 07:00:29;;;;;;;3.40;1.45;;;2.80;99.90;;;;;;5050648;28;20120;-64
2022/01/14 07:02:55;;;;;;;9.07;1.48;;;2.80;99.90;;;;;;5063419;28;20071;-64
2022/01/14 07:05:21;;;;;;;2.55;1.13;;;2.90;99.90;;;;;;5063025;28;20516;-63
2022/01/14 07:07:46;;;;;;;3.22;1.50;;;2.80;99.90;;;;;;5063646;28;20072;-64
2022/01/14 07:10:12;;;;;;;5.35;1.40;;;2.80;99.90;;;;;;5060567;28;20036;-64
2022/01/14 07:12:40;;;;;;;6.20;1.75;;;2.80;99.90;;;;;;5065242;28;20041;-64
2022/01/14 07:15:11;;;;;;;2.70;1.25;;;2.80;99.90;;;;;;5052546;28;20064;-65
2022/01/14 07:17:38;;;;;;;7.50;1.65;;;2.90;99.90;;;;;;5064025;28;20531;-65
2022/01/14 07:20:08;;;;;;;3.22;1.42;;;2.80;99.90;;;;;;5059682;28;20048;-64
2022/01/14 07:22:34;;;;;;;5.10;1.58;;;2.90;99.90;;;;;;5061973;28;20048;-65
2022/01/14 07:25:01;;;;;;;3.85;1.40;;;3.00;99.90;;;;;;5063434;28;20108;-64
2022/01/14 07:27:27;;;;;;;4.05;2.20;;;2.90;99.90;;;;;;5064593;28;20094;-64
2022/01/14 07:29:54;;;;;;;5.10;1.50;;;2.90;99.90;;;;;;5062770;28;20037;-64
2022/01/14 07:32:19;;;;;;;7.20;2.13;;;2.90;99.90;;;;;;5066844;28;20041;-65
2022/01/14 07:34:45;;;;;;;4.32;1.48;;;2.90;99.90;;;;;;5063145;28;20488;-64
2022/01/14 07:37:12;;;;;;;3.67;1.63;;;2.90;99.90;;;;;;5066281;28;20728;-64
2022/01/14 07:39:38;;;;;;;5.00;1.42;;;3.00;99.90;;;;;;5061680;28;20524;-63
2022/01/14 07:42:04;;;;;;;6.82;2.80;;;3.00;99.90;;;;;;5064926;28;20045;-62
2022/01/14 07:44:30;;;;;;;3.83;1.30;;;3.00;99.90;;;;;;5062850;28;20111;-63
2022/01/14 07:46:55;;;;;;;5.07;1.17;;;3.00;99.90;;;;;;5068517;28;20557;-63
2022/01/14 07:49:21;;;;;;;2.28;1.10;;;3.00;99.90;;;;;;5065206;28;20098;-63
2022/01/14 07:51:47;;;;;;;2.75;1.13;;;3.00;99.90;;;;;;5059504;28;20119;-63
2022/01/14 07:54:12;;;;;;;2.90;1.13;;;3.10;99.90;;;;;;5058958;28;20052;-60
2022/01/14 07:56:45;;;;;;;3.28;1.42;;;3.10;99.90;;;;;;5059146;28;20045;-63
2022/01/14 07:59:13;;;;;;;4.10;1.02;;;3.10;99.90;;;;;;5053505;28;20310;-63
2022/01/14 08:01:39;;;;;;;4.10;1.35;;;3.20;99.90;;;;;;5075792;28;20518;-63
2022/01/14 08:04:05;;;;;;;7.32;2.10;;;3.30;99.90;;;;;;5062497;28;20044;-63
2022/01/14 08:06:33;;;;;;;6.13;1.77;;;3.40;99.90;;;;;;5063855;28;20037;-63
2022/01/14 08:08:59;;;;;;;1.90;1.10;;;3.40;99.90;;;;;;5065167;28;20395;-63
2022/01/14 08:11:25;;;;;;;3.33;0.77;;;3.50;99.90;;;;;;5065081;28;20124;-63
2022/01/14 08:13:51;;;;;;;1.77;0.90;;;3.40;99.90;;;;;;5079779;28;20119;-63
2022/01/14 08:16:16;;;;;;;2.22;0.85;;;3.50;99.90;;;;;;5067994;28;20055;-63
2022/01/14 08:18:42;;;;;;;2.75;0.70;;;3.50;99.90;;;;;;5065791;28;20059;-63
2022/01/14 08:21:08;;;;;;;3.78;0.75;;;3.60;99.90;;;;;;5065278;28;20115;-63
2022/01/14 08:23:33;;;;;;;2.75;1.02;;;3.60;99.90;;;;;;5064054;28;20086;-63
2022/01/14 08:25:59;;;;;;;3.13;0.90;;;3.60;99.90;;;;;;5070274;28;20044;-63
2022/01/14 08:28:25;;;;;;;4.50;0.88;;;3.70;99.90;;;;;;5064171;28;20111;-64
2022/01/14 08:30:51;;;;;;;2.97;0.95;;;3.90;99.90;;;;;;5059518;28;20558;-63
2022/01/14 08:33:18;;;;;;;1.65;0.80;;;4.00;99.90;;;;;;5061326;28;20063;-64
2022/01/14 08:35:44;;;;;;;3.30;0.95;;;4.00;99.90;;;;;;5055670;28;20124;-64
2022/01/14 08:38:10;;;;;;;3.03;0.88;;;4.10;99.90;;;;;;5066639;28;20855;-63
2022/01/14 08:40:36;;;;;;;2.88;1.02;;;4.30;99.90;;;;;;5064663;28;20606;-63
2022/01/14 08:43:02;;;;;;;1.98;0.90;;;4.40;99.90;;;;;;5067599;28;20054;-62
2022/01/14 08:45:28;;;;;;;3.25;1.20;;;4.50;99.90;;;;;;5065195;28;20052;-63
2022/01/14 08:47:55;;;;;;;2.70;1.00;;;4.60;99.90;;;;;;5067427;28;20098;-63
2022/01/14 08:50:30;;;;;;;2.05;1.00;;;4.60;99.90;;;;;;5063345;28;20554;-63
2022/01/14 08:52:59;;;;;;;3.03;0.77;;;4.70;99.90;;;;;;5067405;28;20123;-63
2022/01/14 08:55:25;;;;;;;2.58;0.80;;;4.70;99.90;;;;;;5065426;28;20072;-63
2022/01/14 08:57:52;;;;;;;5.00;0.85;;;4.80;99.90;;;;;;5067663;28;20044;-63
2022/01/14 09:00:19;;;;;;;3.05;0.90;;;4.90;99.90;;;;;;5061697;28;20042;-64
2022/01/14 09:02:45;;;;;;;2.67;0.98;;;5.00;99.90;;;;;;5065113;28;20040;-63
2022/01/14 09:05:11;;;;;;;1.92;0.77;;;5.00;99.10;;;;;;5065384;28;20040;-66
2022/01/14 09:07:38;;;;;;;2.75;0.70;;;5.20;98.40;;;;;;5067163;28;20048;-63
2022/01/14 09:10:06;;;;;;;1.77;0.52;;;5.30;99.70;;;;;;5060067;28;20386;-63
2022/01/14 09:12:33;;;;;;;2.10;0.65;;;5.40;98.30;;;;;;5062655;28;20044;-63
2022/01/14 09:15:00;;;;;;;0.85;0.50;;;5.40;99.60;;;;;;5060304;28;20036;-63
2022/01/14 09:17:26;;;;;;;1.45;0.50;;;5.50;98.90;;;;;;5064219;28;20064;-63
2022/01/14 09:19:52;;;;;;;1.52;0.60;;;5.60;97.60;;;;;;5062314;28;20043;-63
2022/01/14 09:22:18;;;;;;;2.03;1.05;;;5.70;97.00;;;;;;5065101;28;20032;-63
2022/01/14 09:24:48;;;;;;;2.63;0.70;;;5.80;97.50;;;;;;5061292;28;20105;-64
2022/01/14 09:27:15;;;;;;;3.35;1.02;;;5.90;96.30;;;;;;5068086;28;20094;-64
2022/01/14 09:29:41;;;;;;;1.73;0.73;;;6.00;97.60;;;;;;5060967;28;20037;-63
2022/01/14 09:32:07;;;;;;;4.30;1.10;;;6.00;98.70;;;;;;5063309;28;20481;-63
2022/01/14 09:34:34;;;;;;;5.28;1.50;;;6.00;99.20;;;;;;5060639;28;20127;-63
2022/01/14 09:37:00;;;;;;;8.60;1.75;;;6.00;99.90;;;;;;5061047;28;20047;-63
2022/01/14 09:39:25;;;;;;;4.82;1.92;;;6.00;99.90;;;;;;5060545;28;20040;-63
2022/01/14 09:41:51;;;;;;;10.63;1.98;;;5.90;99.90;;;;;;5064355;28;20044;-63
2022/01/14 09:44:18;;;;;;;7.75;2.15;;;5.90;99.90;;;;;;5060726;28;20024;-64
2022/01/14 09:46:48;;;;;;;8.90;2.55;;;5.80;99.90;;;;;;5064141;28;20052;-63
2022/01/14 09:49:15;;;;;;;7.80;2.65;;;5.90;99.90;;;;;;5061235;28;20033;-63
2022/01/14 09:51:41;;;;;;;10.00;3.53;;;5.80;99.90;;;;;;5063497;28;20040;-63
2022/01/14 09:54:08;;;;;;;12.45;4.40;;;5.70;99.90;;;;;;5061560;28;20041;-63
2022/01/14 09:56:33;;;;;;;8.70;2.58;;;5.70;99.90;;;;;;5067301;28;20496;-63
2022/01/14 09:59:02;;;;;;;6.18;2.47;;;5.70;99.90;;;;;;5060539;28;20033;-63
2022/01/14 10:01:28;;;;;;;6.85;2.67;;;5.80;99.90;;;;;;5055174;28;20090;-64
2022/01/14 10:04:02;;;;;;;12.55;2.97;;;5.80;99.90;;;;;;5061655;28;20140;-64
2022/01/14 10:06:34;;;;;;;12.43;3.47;;;5.70;99.90;;;;;;5060865;28;20458;-65
2022/01/14 10:09:08;;;;;;;9.30;3.00;;;5.70;99.90;;;;;;5067899;28;20487;-65
2022/01/14 10:11:35;;;;;;;10.63;3.85;;;5.70;99.90;;;;;;5065205;28;20044;-65
2022/01/14 10:14:11;;;;;;;11.27;3.72;;;5.70;99.90;;;;;;5060325;28;20101;-65
2022/01/14 10:16:41;;;;;;;13.07;4.47;;;5.70;99.90;;;;;;5064055;28;20187;-64
2022/01/14 10:19:17;;;;;;;9.07;3.50;;;5.80;99.90;;;;;;5063540;28;20050;-65
2022/01/14 10:21:43;;;;;;;13.52;4.55;;;5.70;99.90;;;;;;5061759;28;20064;-64
2022/01/14 10:24:11;;;;;;;14.00;5.00;;;5.70;99.90;;;;;;5076491;28;20056;-64
2022/01/14 10:26:51;;;;;;;13.05;5.65;;;5.60;99.90;;;;;;5063404;28;20483;-65
2022/01/14 10:29:38;;;;;;;16.58;5.65;;;5.70;99.90;;;;;;5057210;28;20127;-66
2022/01/14 10:32:07;;;;;;;17.52;7.38;;;5.80;99.90;;;;;;5061221;28;20039;-65
2022/01/14 10:34:34;;;;;;;14.73;6.82;;;5.60;99.90;;;;;;5059794;28;20098;-65
2022/01/14 10:37:14;;;;;;;18.02;7.68;;;5.50;99.90;;;;;;5058089;28;20506;-65
2022/01/14 10:39:46;;;;;;;17.45;7.72;;;5.40;99.90;;;;;;5062999;28;20672;-65
2022/01/14 10:42:36;;;;;;;18.25;8.50;;;5.20;99.90;;;;;;5066189;28;20519;-65
2022/01/14 10:45:24;;;;;;;19.50;9.10;;;5.00;99.90;;;;;;5060344;28;20036;-65
2022/01/14 10:47:56;;;;;;;22.52;9.60;;;4.90;99.90;;;;;;5066848;28;20129;-65
2022/01/14 10:50:31;;;;;;;27.52;11.23;;;4.70;99.90;;;;;;5060364;28;20049;-64
2022/01/14 10:52:58;;;;;;;27.27;10.73;;;4.40;99.90;;;;;;5061809;28;20373;-65
2022/01/14 10:55:34;;;;;;;21.05;9.73;;;4.20;99.90;;;;;;5060392;28;20044;-65
2022/01/14 10:58:02;;;;;;;28.70;12.30;;;4.10;99.90;;;;;;5053520;28;20043;-65
2022/01/14 11:00:28;;;;;;;26.95;11.98;;;4.10;99.90;;;;;;5052873;28;20045;-63
2022/01/14 11:02:54;;;;;;;25.60;11.40;;;3.80;99.90;;;;;;5058338;28;20037;-64
2022/01/14 11:05:22;;;;;;;28.25;12.05;;;3.90;99.90;;;;;;5059785;28;20405;-65
2022/01/14 11:07:51;;;;;;;30.90;12.32;;;3.80;99.90;;;;;;5064142;28;20519;-65
2022/01/14 11:10:24;;;;;;;25.77;12.13;;;3.60;99.90;;;;;;5061653;28;20046;-65
2022/01/14 11:12:55;;;;;;;27.38;12.00;;;3.50;99.90;;;;;;5061663;28;20048;-65
2022/01/14 11:15:23;;;;;;;37.33;13.93;;;3.60;99.90;;;;;;5060390;28;20515;-65
2022/01/14 11:17:51;;;;;;;29.25;14.23;;;3.40;99.90;;;;;;5063100;28;20487;-65
2022/01/14 11:20:24;;;;;;;39.05;15.25;;;3.20;99.90;;;;;;5059903;28;20037;-64
2022/01/14 11:25:42;;;;;;;31.63;14.95;;;3.00;99.90;;;;;;5060476;28;20049;-65
2022/01/14 11:28:09;;;;;;;30.80;13.38;;;3.10;99.90;;;;;;5060285;28;20048;-66
2022/01/14 11:30:38;;;;;;;33.58;15.57;;;3.20;99.90;;;;;;5057899;28;20064;-65
2022/01/14 11:33:05;;;;;;;37.63;15.48;;;3.10;99.90;;;;;;5063757;28;20031;-66
2022/01/14 11:35:32;;;;;;;36.28;15.65;;;3.00;99.90;;;;;;5062672;28;20047;-64
2022/01/14 11:37:59;;;;;;;33.70;16.40;;;2.90;99.90;;;;;;5071375;28;20071;-64
2022/01/14 11:40:25;;;;;;;35.45;14.80;;;2.80;99.90;;;;;;5061418;28;20028;-63
2022/01/14 11:42:59;;;;;;;33.28;16.58;;;2.90;99.90;;;;;;5062566;28;20601;-64
2022/01/14 11:45:43;;;;;;;37.40;16.08;;;2.80;99.90;;;;;;5060868;28;20103;-63
2022/01/14 11:48:44;;;;;;;33.17;14.27;;;2.80;99.90;;;;;;5054103;28;20689;-64
2022/01/14 11:51:14;;;;;;;34.90;14.38;;;2.90;99.90;;;;;;5060204;28;20033;-64
2022/01/14 11:53:52;;;;;;;36.88;13.75;;;2.80;99.90;;;;;;5060005;28;20052;-64
2022/01/14 11:56:32;;;;;;;30.17;13.77;;;2.70;99.90;;;;;;5061862;28;20087;-64
2022/01/14 11:59:17;;;;;;;30.88;13.05;;;2.70;99.90;;;;;;5059328;28;20067;-64
2022/01/14 12:01:43;;;;;;;20.65;9.68;;;2.90;99.90;;;;;;5058537;28;20154;-65
2022/01/14 12:04:09;;;;;;;20.30;8.40;;;2.90;99.90;;;;;;5055595;28;20199;-63
2022/01/14 12:06:50;;;;;;;16.10;7.22;;;3.00;99.90;;;;;;5057719;28;20783;-63
2022/01/14 12:09:17;;;;;;;12.30;7.03;;;2.90;99.90;;;;;;5055793;28;20041;-63
2022/01/14 12:11:43;;;;;;;19.98;7.85;;;3.00;99.90;;;;;;5065309;28;20029;-65
2022/01/14 12:14:11;;;;;;;14.55;7.32;;;3.10;99.90;;;;;;5057985;28;20144;-62
2022/01/14 12:16:49;;;;;;;13.02;6.70;;;3.10;99.90;;;;;;5080197;28;20044;-62
2022/01/14 12:19:17;;;;;;;14.05;6.15;;;3.00;99.90;;;;;;5069716;28;20041;-62
2022/01/14 12:21:49;;;;;;;14.10;6.30;;;2.90;99.90;;;;;;5060441;28;20056;-63
2022/01/14 12:24:14;;;;;;;10.90;6.53;;;2.80;99.90;;;;;;5070982;28;20065;-62
2022/01/14 12:26:41;;;;;;;14.93;6.22;;;2.80;99.90;;;;;;5065994;28;20748;-63
2022/01/14 12:29:12;;;;;;;13.02;6.30;;;2.70;99.90;;;;;;5061833;28;20057;-62
2022/01/14 12:32:39;;;;;;;11.30;5.65;;;2.60;99.90;;;;;;5065686;28;20156;-63
2022/01/14 12:35:08;;;;;;;8.85;4.82;;;2.60;99.90;;;;;;4997423;28;20053;-62
2022/01/14 12:37:40;;;;;;;14.50;5.20;;;2.50;99.90;;;;;;5064919;28;20055;-62
2022/01/14 12:40:20;;;;;;;13.00;6.22;;;2.60;99.90;;;;;;5063656;28;20052;-62
2022/01/14 12:42:55;;;;;;;14.20;5.07;;;2.50;99.90;;;;;;5066834;28;20492;-63
2022/01/14 12:45:37;;;;;;;10.70;4.72;;;2.60;99.90;;;;;;5064534;28;20040;-62
2022/01/14 12:48:32;;;;;;;10.00;4.75;;;2.80;99.90;;;;;;5060098;28;20049;-63
2022/01/14 12:51:10;;;;;;;9.15;4.82;;;3.00;99.90;;;;;;5066024;28;20033;-63
2022/01/14 12:53:36;;;;;;;9.48;5.32;;;3.10;99.90;;;;;;5064866;28;20048;-63
2022/01/14 12:56:14;;;;;;;7.35;4.18;;;3.20;99.90;;;;;;5068745;28;20659;-63
2022/01/14 12:58:53;;;;;;;8.73;4.70;;;3.20;99.90;;;;;;5065782;28;20079;-63
2022/01/14 13:01:25;;;;;;;9.23;4.03;;;3.20;99.90;;;;;;5063157;28;20612;-63
2022/01/14 13:03:54;;;;;;;8.25;4.03;;;3.30;99.90;;;;;;5064159;28;20516;-63
2022/01/14 13:06:20;;;;;;;7.55;3.95;;;3.20;99.90;;;;;;5065278;28;20048;-63
2022/01/14 13:09:06;;;;;;;6.43;3.92;;;3.30;99.90;;;;;;5065356;28;20039;-63
2022/01/14 13:11:45;;;;;;;10.25;5.35;;;3.30;99.90;;;;;;5064072;28;20033;-63
2022/01/14 13:14:16;;;;;;;8.82;3.67;;;3.40;99.90;;;;;;5057999;28;20125;-63
2022/01/14 13:16:47;;;;;;;7.88;4.07;;;3.50;99.90;;;;;;5067731;28;20040;-63
2022/01/14 13:19:23;;;;;;;5.75;3.40;;;3.60;99.90;;;;;;5064053;28;20045;-63
2022/01/14 13:21:48;;;;;;;6.55;3.58;;;3.50;99.90;;;;;;5064737;28;20048;-63
2022/01/14 13:24:32;;;;;;;7.10;3.60;;;3.40;99.90;;;;;;5059965;28;20381;-63
2022/01/14 13:27:01;;;;;;;6.30;3.95;;;3.50;99.90;;;;;;5064556;28;20075;-63
2022/01/14 13:29:27;;;;;;;5.95;3.20;;;3.60;99.90;;;;;;5058921;28;20037;-63
2022/01/14 13:31:52;;;;;;;5.38;3.28;;;3.70;99.90;;;;;;5064028;28;20114;-63
2022/01/14 13:34:19;;;;;;;8.43;3.78;;;3.70;99.90;;;;;;5059304;28;20037;-63